createdAt,value
2019-01-21T00:02:03.773Z,20.37
2019-01-21T00:04:30.616Z,19.30
2019-01-21T00:06:57.152Z,20.83
2019-01-21T00:09:24.725Z,18.27
2019-01-21T00:11:53.138Z,19.20
2019-01-21T00:14:19.764Z,19.40
2019-01-21T00:16:48.188Z,18.77
2019-01-21T00:19:14.667Z,18.47
2019-01-21T00:21:41.261Z,18.93
2019-01-21T00:24:09.842Z,19.57
2019-01-21T00:26:36.426Z,18.60
2019-01-21T00:29:03.112Z,18.87
2019-01-21T00:31:31.531Z,18.90
2019-01-21T00:33:59.227Z,19.90
2019-01-21T00:36:25.882Z,20.80
2019-01-21T00:38:52.293Z,19.80
2019-01-21T00:41:19.778Z,19.63
2019-01-21T00:43:46.410Z,19.97
2019-01-21T00:46:13.194Z,19.13
2019-01-21T00:48:39.736Z,19.90
2019-01-21T00:51:06.805Z,19.10
2019-01-21T00:53:33.505Z,19.93
2019-01-21T00:56:00.032Z,20.10
2019-01-21T00:58:26.645Z,19.90
2019-01-21T01:00:53.517Z,19.67
2019-01-21T01:03:20.148Z,19.83
2019-01-21T01:05:46.761Z,19.93
2019-01-21T01:08:13.408Z,19.90
2019-01-21T01:10:41.098Z,19.70
2019-01-21T01:13:07.777Z,20.20
2019-01-21T01:15:34.413Z,20.03
2019-01-21T01:18:00.958Z,20.17
2019-01-21T01:20:27.578Z,21.30
2019-01-21T01:22:54.447Z,20.60
2019-01-21T01:25:21.192Z,21.80
2019-01-21T01:27:47.852Z,19.33
2019-01-21T01:30:15.687Z,19.93
2019-01-21T01:32:42.298Z,20.50
2019-01-21T01:35:11.439Z,22.63
2019-01-21T01:37:38.034Z,20.67
2019-01-21T01:40:08.272Z,20.77
2019-01-21T01:42:34.874Z,20.63
2019-01-21T01:45:01.803Z,22.10
2019-01-21T01:47:29.007Z,19.70
2019-01-21T01:49:55.739Z,20.77
2019-01-21T01:52:24.486Z,21.23
2019-01-21T01:54:53.403Z,20.90
2019-01-21T01:57:20.133Z,21.13
2019-01-21T01:59:47.148Z,21.77
2019-01-21T02:02:14.913Z,21.50
2019-01-21T02:04:41.559Z,21.50
2019-01-21T02:07:08.390Z,19.97
2019-01-21T02:09:36.275Z,20.80
2019-01-21T02:12:03.008Z,20.63
2019-01-21T02:14:29.637Z,21.77
2019-01-21T02:16:56.245Z,21.37
2019-01-21T02:19:26.462Z,19.30
2019-01-21T02:21:54.397Z,21.67
2019-01-21T02:24:22.925Z,20.77
2019-01-21T02:26:53.270Z,21.83
2019-01-21T02:29:29.467Z,20.50
2019-01-21T02:32:16.262Z,21.33
2019-01-21T02:34:49.273Z,20.30
2019-01-21T02:37:34.813Z,20.90
2019-01-21T02:40:24.641Z,21.17
2019-01-21T02:43:09.867Z,21.27
2019-01-21T02:45:45.865Z,20.90
2019-01-21T02:48:21.914Z,20.33
2019-01-21T02:51:10.604Z,20.00
2019-01-21T02:53:43.605Z,19.43
2019-01-21T02:56:22.681Z,20.43
2019-01-21T02:59:01.902Z,19.70
2019-01-21T03:01:35.725Z,19.07
2019-01-21T03:04:05.961Z,19.17
2019-01-21T03:06:36.163Z,18.37
2019-01-21T03:09:12.075Z,19.77
2019-01-21T03:11:45.451Z,18.73
2019-01-21T03:14:21.897Z,18.37
2019-01-21T03:17:13.674Z,18.77
2019-01-21T03:19:52.665Z,18.93
2019-01-21T03:22:27.256Z,17.93
2019-01-21T03:25:09.532Z,19.03
2019-01-21T03:27:42.752Z,18.13
2019-01-21T03:30:31.609Z,19.97
2019-01-21T03:33:16.334Z,19.87
2019-01-21T03:35:52.393Z,19.17
2019-01-21T03:38:54.645Z,19.27
2019-01-21T03:41:30.435Z,17.50
2019-01-21T03:44:09.457Z,18.23
2019-01-21T03:46:54.615Z,18.93
2019-01-21T03:49:27.781Z,18.10
2019-01-21T03:52:17.575Z,17.90
2019-01-21T03:54:44.802Z,17.57
2019-01-21T03:57:13.898Z,18.90
2019-01-21T03:59:56.439Z,18.37
2019-01-21T04:02:43.496Z,17.27
2019-01-21T04:05:13.720Z,17.60
2019-01-21T04:08:03.963Z,18.83
2019-01-21T04:10:49.561Z,17.50
2019-01-21T04:13:25.602Z,18.67
2019-01-21T04:16:01.765Z,18.07
2019-01-21T04:18:48.941Z,18.30
2019-01-21T04:21:45.839Z,18.13
2019-01-21T04:24:22.442Z,17.93
2019-01-21T04:27:13.521Z,17.13
2019-01-21T04:30:09.430Z,17.40
2019-01-21T04:32:57.864Z,18.27
2019-01-21T04:35:55.432Z,18.07
2019-01-21T04:38:56.196Z,17.13
2019-01-21T04:41:29.275Z,17.10
2019-01-21T04:44:18.830Z,17.30
2019-01-21T04:46:52.176Z,16.97
2019-01-21T04:49:37.879Z,17.30
2019-01-21T04:52:26.425Z,16.70
2019-01-21T04:55:15.002Z,18.63
2019-01-21T04:58:00.095Z,17.37
2019-01-21T05:00:54.977Z,18.33
2019-01-21T05:03:46.771Z,17.93
2019-01-21T05:06:19.899Z,18.53
2019-01-21T05:09:06.701Z,18.23
2019-01-21T05:11:39.981Z,17.73
2019-01-21T05:14:13.201Z,18.17
2019-01-21T05:16:46.161Z,18.53
2019-01-21T05:19:16.557Z,19.60
2019-01-21T05:21:49.863Z,19.77
2019-01-21T05:24:32.495Z,18.13
2019-01-21T05:27:08.849Z,18.97
2019-01-21T05:29:59.011Z,18.17
2019-01-21T05:32:53.052Z,18.13
2019-01-21T05:35:44.742Z,17.87
2019-01-21T05:38:34.435Z,18.30
2019-01-21T05:41:16.626Z,18.57
2019-01-21T05:43:52.368Z,19.60
2019-01-21T05:46:43.383Z,17.50
2019-01-21T05:49:37.487Z,18.17
2019-01-21T05:52:26.210Z,18.30
2019-01-21T05:55:05.439Z,18.73
2019-01-21T05:57:44.446Z,17.80
2019-01-21T06:00:36.125Z,18.03
2019-01-21T06:03:12.056Z,19.20
2019-01-21T06:05:59.220Z,17.90
2019-01-21T06:08:56.613Z,18.93
2019-01-21T06:11:35.422Z,18.67
2019-01-21T06:14:17.736Z,19.07
2019-01-21T06:17:06.104Z,17.73
2019-01-21T06:19:39.415Z,17.47
2019-01-21T06:22:18.858Z,17.93
2019-01-21T06:25:07.393Z,18.73
2019-01-21T06:27:41.416Z,17.33
2019-01-21T06:30:33.137Z,18.10
2019-01-21T06:33:30.988Z,17.87
2019-01-21T06:36:16.239Z,17.23
2019-01-21T06:39:10.420Z,19.33
2019-01-21T06:41:52.808Z,19.13
2019-01-21T06:44:31.738Z,20.23
2019-01-21T06:47:04.678Z,19.87
2019-01-21T06:49:53.045Z,19.00
2019-01-21T06:52:32.541Z,21.07
2019-01-21T06:55:21.047Z,20.17
2019-01-21T06:57:57.098Z,19.20
2019-01-21T07:00:30.398Z,19.37
2019-01-21T07:03:09.753Z,20.70
2019-01-21T07:05:39.980Z,19.60
2019-01-21T07:08:32.981Z,19.70
2019-01-21T07:11:19.521Z,18.00
2019-01-21T07:14:12.749Z,19.33
2019-01-21T07:16:46.164Z,19.23
2019-01-21T07:19:31.651Z,20.07
2019-01-21T07:22:07.778Z,20.20
2019-01-21T07:24:40.728Z,18.80
2019-01-21T07:27:17.266Z,20.43
2019-01-21T07:29:47.480Z,17.90
2019-01-21T07:32:19.245Z,19.50
2019-01-21T07:34:55.570Z,19.20
2019-01-21T07:37:28.593Z,18.33
2019-01-21T07:40:14.230Z,18.37
2019-01-21T07:43:00.925Z,17.90
2019-01-21T07:45:33.898Z,17.77
2019-01-21T07:48:16.318Z,18.90
2019-01-21T07:51:07.845Z,17.73
2019-01-21T07:53:47.118Z,19.10
2019-01-21T07:56:38.354Z,17.73
2019-01-21T07:59:20.383Z,18.43
2019-01-21T08:02:03.252Z,17.17
2019-01-21T08:04:53.071Z,18.20
2019-01-21T08:07:38.464Z,18.23
2019-01-21T08:10:30.255Z,18.07
2019-01-21T08:13:09.017Z,18.27
2019-01-21T08:15:39.257Z,17.50
2019-01-21T08:18:31.950Z,18.90
2019-01-21T08:21:07.953Z,17.37
2019-01-21T08:23:53.421Z,17.93
2019-01-21T08:26:29.913Z,17.40
2019-01-21T08:29:00.220Z,17.73
2019-01-21T08:31:39.980Z,17.57
2019-01-21T08:34:31.590Z,18.17
2019-01-21T08:37:04.609Z,16.70
2019-01-21T08:39:37.522Z,16.10
2019-01-21T08:42:22.785Z,16.50
2019-01-21T08:45:08.287Z,16.73
2019-01-21T08:47:41.480Z,16.93
2019-01-21T08:50:14.774Z,17.17
2019-01-21T08:52:47.806Z,16.43
2019-01-21T08:55:40.869Z,15.80
2019-01-21T08:58:27.915Z,15.10
2019-01-21T09:01:10.434Z,14.73
2019-01-21T09:03:52.583Z,14.97
2019-01-21T09:06:25.998Z,15.57
2019-01-21T09:08:59.064Z,15.27
2019-01-21T09:11:49.887Z,14.37
2019-01-21T09:14:25.825Z,15.50
2019-01-21T09:17:13.905Z,14.80
2019-01-21T09:19:59.355Z,14.70
2019-01-21T09:22:29.689Z,14.97
2019-01-21T09:25:18.008Z,14.90
2019-01-21T09:28:05.284Z,14.23
2019-01-21T09:30:41.241Z,14.70
2019-01-21T09:33:36.102Z,15.20
2019-01-21T09:36:27.832Z,15.33
2019-01-21T09:39:28.866Z,15.13
2019-01-21T09:42:14.174Z,15.60
2019-01-21T09:44:44.469Z,14.07
2019-01-21T09:47:10.698Z,14.87
2019-01-21T09:49:36.897Z,14.37
2019-01-21T09:52:03.572Z,14.40
2019-01-21T09:54:30.206Z,14.43
2019-01-21T09:56:57.211Z,14.37
2019-01-21T09:59:24.155Z,15.17
2019-01-21T10:01:53.761Z,14.67
2019-01-21T10:04:23.974Z,14.33
2019-01-21T10:07:10.725Z,16.33
2019-01-21T10:09:43.816Z,15.70
2019-01-21T10:12:23.020Z,14.97
2019-01-21T10:14:55.903Z,15.57
2019-01-21T10:17:32.424Z,15.70
2019-01-21T10:20:21.953Z,15.90
2019-01-21T10:23:07.233Z,17.27
2019-01-21T10:25:49.461Z,17.53
2019-01-21T10:28:19.688Z,18.07
2019-01-21T10:31:01.941Z,16.87
2019-01-21T10:33:55.239Z,17.57
2019-01-21T10:36:48.314Z,18.70
2019-01-21T10:39:37.896Z,18.70
2019-01-21T10:42:21.728Z,19.03
2019-01-21T10:44:51.966Z,18.47
2019-01-21T10:47:30.680Z,18.30
2019-01-21T10:50:36.090Z,18.07
2019-01-21T10:53:12.398Z,18.53
2019-01-21T10:55:54.860Z,19.50
2019-01-21T10:58:34.148Z,18.57
2019-01-21T11:01:07.394Z,19.23
2019-01-21T11:03:41.446Z,19.17
2019-01-21T11:06:20.570Z,20.13
2019-01-21T11:09:15.710Z,19.50
2019-01-21T11:12:07.078Z,19.63
2019-01-21T11:14:37.348Z,19.27
2019-01-21T11:17:26.244Z,19.83
2019-01-21T11:20:28.646Z,19.37
2019-01-21T11:23:31.146Z,19.23
2019-01-21T11:26:34.940Z,19.60
2019-01-21T11:29:17.923Z,19.57
2019-01-21T11:31:50.679Z,19.83
2019-01-21T11:34:20.744Z,19.20
2019-01-21T11:36:51.836Z,18.53
2019-01-21T11:39:56.913Z,18.07
2019-01-21T11:42:39.340Z,18.27
2019-01-21T11:45:18.820Z,18.57
2019-01-21T11:48:04.406Z,19.83
2019-01-21T11:50:34.616Z,19.30
2019-01-21T11:53:07.331Z,19.37
2019-01-21T11:55:40.659Z,20.37
2019-01-21T11:58:25.977Z,19.80
2019-01-21T12:01:05.148Z,21.17
2019-01-21T12:03:41.395Z,21.07
2019-01-21T12:06:07.914Z,19.13
2019-01-21T12:08:38.121Z,20.50
2019-01-21T12:11:23.381Z,20.93
2019-01-21T12:13:59.589Z,20.67
2019-01-21T12:16:49.492Z,19.33
2019-01-21T12:19:28.261Z,20.93
2019-01-21T12:22:13.393Z,20.20
2019-01-21T12:24:40.106Z,20.90
2019-01-21T12:27:36.189Z,22.23
2019-01-21T12:30:18.284Z,21.47
2019-01-21T12:33:06.831Z,21.90
2019-01-21T12:35:37.085Z,22.50
2019-01-21T12:38:24.984Z,22.90
2019-01-21T12:41:07.240Z,22.70
2019-01-21T12:43:53.972Z,21.60
2019-01-21T12:46:27.227Z,22.13
2019-01-21T12:49:12.466Z,21.50
2019-01-21T12:51:46.245Z,21.50
2019-01-21T12:54:31.518Z,21.77
2019-01-21T12:57:07.568Z,22.00
2019-01-21T12:59:52.446Z,21.30
2019-01-21T13:02:34.604Z,22.40
2019-01-21T13:05:21.406Z,23.07
2019-01-21T13:07:57.610Z,22.17
2019-01-21T13:10:36.545Z,23.03
2019-01-21T13:13:12.689Z,23.33
2019-01-21T13:15:59.395Z,22.97
2019-01-21T13:18:32.400Z,22.27
2019-01-21T13:21:14.642Z,22.37
2019-01-21T13:23:53.914Z,22.17
2019-01-21T13:26:39.171Z,21.87
2019-01-21T13:29:12.107Z,22.50
2019-01-21T13:31:42.338Z,23.83
2019-01-21T13:34:15.358Z,23.60
2019-01-21T13:36:45.572Z,23.07
2019-01-21T13:39:30.771Z,22.93
2019-01-21T13:42:01.155Z,20.93
2019-01-21T13:44:37.280Z,20.43
2019-01-21T13:47:19.030Z,21.30
2019-01-21T13:49:58.300Z,22.20
2019-01-21T13:52:35.379Z,21.43
2019-01-21T13:55:23.906Z,21.37
2019-01-21T13:57:56.913Z,21.60
2019-01-21T14:00:29.954Z,20.97
2019-01-21T14:03:22.038Z,21.87
2019-01-21T14:06:16.725Z,20.53
2019-01-21T14:08:53.154Z,20.80
2019-01-21T14:11:23.428Z,21.40
2019-01-21T14:13:56.775Z,20.10
2019-01-21T14:16:51.591Z,18.83
2019-01-21T14:19:26.267Z,19.97
2019-01-21T14:22:14.919Z,20.43
2019-01-21T14:24:51.499Z,19.03
2019-01-21T14:27:38.526Z,19.77
2019-01-21T14:30:14.893Z,20.03
2019-01-21T14:32:51.246Z,19.70
2019-01-21T14:35:33.699Z,20.03
2019-01-21T14:38:30.199Z,18.43
2019-01-21T14:41:03.726Z,20.03
2019-01-21T14:43:49.220Z,20.60
2019-01-21T14:46:44.974Z,19.00
2019-01-21T14:49:21.491Z,20.00
2019-01-21T14:52:01.268Z,19.47
2019-01-21T14:54:43.334Z,20.00
2019-01-21T14:57:34.172Z,19.63
2019-01-21T15:00:07.486Z,20.03
2019-01-21T15:02:40.884Z,20.47
2019-01-21T15:05:39.971Z,20.30
2019-01-21T15:08:10.301Z,21.87
2019-01-21T15:10:43.423Z,22.57
2019-01-21T15:13:20.979Z,21.10
2019-01-21T15:15:57.495Z,22.27
2019-01-21T15:18:43.107Z,22.00
2019-01-21T15:21:34.090Z,22.23
2019-01-21T15:24:10.130Z,21.40
2019-01-21T15:26:49.133Z,22.03
2019-01-21T15:29:46.038Z,21.57
2019-01-21T15:32:25.954Z,22.10
2019-01-21T15:34:59.021Z,23.63
2019-01-21T15:37:42.155Z,21.40
2019-01-21T15:40:22.457Z,22.80
2019-01-21T15:42:58.630Z,23.50
2019-01-21T15:45:50.819Z,22.50
2019-01-21T15:48:21.684Z,24.03
2019-01-21T15:50:51.983Z,23.30
2019-01-21T15:53:25.292Z,22.97
2019-01-21T15:55:58.427Z,23.43
2019-01-21T15:58:43.684Z,23.83
2019-01-21T16:01:16.762Z,24.40
2019-01-21T16:03:59.285Z,24.40
2019-01-21T16:06:49.806Z,23.30
2019-01-21T16:09:38.393Z,23.60
2019-01-21T16:12:20.903Z,23.13
2019-01-21T16:14:51.162Z,24.23
2019-01-21T16:17:24.383Z,23.47
2019-01-21T16:19:51.173Z,25.20
2019-01-21T16:22:27.277Z,23.73
2019-01-21T16:25:00.536Z,23.47
2019-01-21T16:27:52.377Z,23.53
2019-01-21T16:30:28.300Z,23.70
2019-01-21T16:33:04.870Z,23.47
2019-01-21T16:35:44.209Z,23.10
2019-01-21T16:38:14.455Z,23.33
2019-01-21T16:40:47.441Z,24.27
2019-01-21T16:43:14.151Z,22.67
2019-01-21T16:45:40.774Z,24.83
2019-01-21T16:48:07.403Z,24.37
2019-01-21T16:50:34.049Z,24.73
2019-01-21T16:53:00.697Z,23.07
2019-01-21T16:55:27.388Z,24.67
2019-01-21T16:57:54.189Z,23.40
2019-01-21T17:00:20.756Z,24.47
2019-01-21T17:02:48.189Z,25.17
2019-01-21T17:05:14.753Z,24.40
2019-01-21T17:07:41.455Z,25.87
2019-01-21T17:10:10.407Z,25.27
2019-01-21T17:12:37.406Z,26.57
2019-01-21T17:15:07.153Z,25.20
2019-01-21T17:17:33.781Z,29.40
2019-01-21T17:20:00.425Z,29.07
2019-01-21T17:22:27.022Z,29.13
2019-01-21T17:24:58.407Z,27.53
2019-01-21T17:27:25.958Z,27.67
2019-01-21T17:29:52.492Z,27.90
2019-01-21T17:32:19.128Z,27.50
2019-01-21T17:34:45.786Z,27.47
2019-01-21T17:37:12.367Z,27.80
2019-01-21T17:39:39.063Z,28.37
2019-01-21T17:42:05.581Z,29.67
2019-01-21T17:44:33.447Z,28.37
2019-01-21T17:47:00.171Z,27.73
2019-01-21T17:49:27.391Z,27.83
2019-01-21T17:51:54.058Z,28.57
2019-01-21T17:54:20.747Z,29.83
2019-01-21T17:56:48.210Z,29.63
2019-01-21T17:59:16.226Z,28.87
2019-01-21T18:01:43.117Z,27.07
2019-01-21T18:04:09.754Z,27.80
2019-01-21T18:06:36.355Z,27.87
2019-01-21T18:09:06.920Z,27.43
2019-01-21T18:11:33.530Z,28.27
2019-01-21T18:14:00.229Z,26.60
2019-01-21T18:16:26.962Z,27.80
2019-01-21T18:18:54.966Z,27.43
2019-01-21T18:21:21.589Z,28.90
2019-01-21T18:23:48.223Z,28.67
2019-01-21T18:26:14.929Z,27.47
2019-01-21T18:28:41.567Z,29.93
2019-01-21T18:31:08.142Z,28.70
2019-01-21T18:33:34.671Z,29.40
2019-01-21T18:36:01.258Z,28.50
2019-01-21T18:38:28.969Z,30.23
2019-01-21T18:40:55.654Z,29.20
2019-01-21T18:43:22.456Z,28.50
2019-01-21T18:45:49.177Z,28.90
2019-01-21T18:48:16.886Z,29.23
2019-01-21T18:50:43.528Z,30.80
2019-01-21T18:53:10.140Z,30.27
2019-01-21T18:55:38.958Z,30.03
2019-01-21T18:58:05.752Z,29.03
2019-01-21T19:00:32.374Z,29.90
2019-01-21T19:02:58.959Z,30.17
2019-01-21T19:05:25.585Z,28.97
2019-01-21T19:07:53.650Z,28.53
2019-01-21T19:10:20.461Z,29.80
2019-01-21T19:12:47.060Z,29.00
2019-01-21T19:15:25.885Z,30.33
2019-01-21T19:17:52.846Z,29.17
2019-01-21T19:20:19.500Z,29.77
2019-01-21T19:22:46.113Z,28.67
2019-01-21T19:25:12.794Z,28.90
2019-01-21T19:27:39.398Z,30.33
2019-01-21T19:30:21.111Z,30.43
2019-01-21T19:32:47.797Z,30.40
2019-01-21T19:35:26.560Z,28.97
2019-01-21T19:37:54.338Z,30.30
2019-01-21T19:40:21.558Z,28.53
2019-01-21T19:42:48.157Z,29.63
2019-01-21T19:45:17.732Z,30.00
2019-01-21T19:47:44.563Z,31.53
2019-01-21T19:50:16.826Z,30.60
2019-01-21T19:52:44.583Z,30.60
2019-01-21T19:55:26.293Z,29.83
2019-01-21T19:57:52.781Z,30.77
2019-01-21T20:00:20.747Z,31.57
2019-01-21T20:02:47.347Z,31.27
2019-01-21T20:05:15.972Z,31.13
2019-01-21T20:07:50.172Z,30.40
2019-01-21T20:10:19.315Z,31.03
2019-01-21T20:12:47.081Z,31.30
2019-01-21T20:15:15.704Z,31.47
2019-01-21T20:17:42.716Z,30.27
2019-01-21T20:20:16.789Z,30.93
2019-01-21T20:22:43.407Z,30.43
2019-01-21T20:25:10.839Z,29.73
2019-01-21T20:27:37.481Z,29.50
2019-01-21T20:30:08.044Z,30.03
2019-01-21T20:32:34.765Z,31.67
2019-01-21T20:35:01.371Z,29.17
2019-01-21T20:37:28.029Z,30.40
2019-01-21T20:39:54.504Z,31.83
2019-01-21T20:42:21.309Z,31.40
2019-01-21T20:44:47.798Z,30.90
2019-01-21T20:47:15.997Z,32.03
2019-01-21T20:49:42.480Z,30.83
2019-01-21T20:52:14.113Z,30.93
2019-01-21T20:54:37.508Z,31.90
2019-01-21T20:57:04.185Z,31.50
2019-01-21T20:59:32.782Z,28.10
2019-01-21T21:01:59.308Z,28.17
2019-01-21T21:04:27.079Z,28.63
2019-01-21T21:06:54.148Z,28.97
2019-01-21T21:09:20.627Z,27.97
2019-01-21T21:11:47.144Z,28.03
2019-01-21T21:14:13.650Z,29.43
2019-01-21T21:16:40.203Z,30.30
2019-01-21T21:19:06.836Z,27.37
2019-01-21T21:21:33.542Z,28.23
2019-01-21T21:24:00.134Z,28.67
2019-01-21T21:26:26.772Z,28.17
2019-01-21T21:28:53.371Z,28.10
2019-01-21T21:31:19.995Z,26.33
2019-01-21T21:33:49.282Z,28.07
2019-01-21T21:36:15.963Z,27.17
2019-01-21T21:38:42.983Z,28.20
2019-01-21T21:41:09.574Z,27.90
2019-01-21T21:43:37.789Z,27.03
2019-01-21T21:46:04.471Z,26.17
2019-01-21T21:48:31.832Z,27.77
2019-01-21T21:50:58.771Z,27.50
2019-01-21T21:53:25.362Z,25.70
2019-01-21T21:55:53.335Z,27.13
2019-01-21T21:58:21.772Z,26.13
2019-01-21T22:00:48.483Z,26.43
2019-01-21T22:03:15.302Z,25.50
2019-01-21T22:05:41.943Z,25.37
2019-01-21T22:08:08.501Z,26.13
2019-01-21T22:10:35.557Z,26.27
2019-01-21T22:13:02.336Z,27.03
2019-01-21T22:15:28.962Z,26.20
2019-01-21T22:17:55.693Z,25.40
2019-01-21T22:20:23.013Z,24.73
2019-01-21T22:22:49.684Z,25.70
2019-01-21T22:25:17.766Z,26.93
2019-01-21T22:27:46.439Z,26.10
2019-01-21T22:30:15.230Z,26.93
2019-01-21T22:32:41.742Z,27.00
2019-01-21T22:35:08.457Z,25.00
2019-01-21T22:37:35.195Z,26.50
2019-01-21T22:40:04.303Z,25.67
2019-01-21T22:42:30.939Z,26.13
2019-01-21T22:44:57.552Z,26.13
2019-01-21T22:47:25.818Z,24.80
2019-01-21T22:49:52.408Z,24.87
2019-01-21T22:52:19.028Z,26.53
2019-01-21T22:54:45.755Z,25.03
2019-01-21T22:57:12.499Z,25.87
2019-01-21T22:59:39.132Z,25.00
2019-01-21T23:02:06.874Z,25.20
2019-01-21T23:04:34.601Z,26.77
2019-01-21T23:07:01.047Z,25.43
2019-01-21T23:09:28.368Z,26.13
2019-01-21T23:11:56.998Z,25.90
2019-01-21T23:14:23.445Z,25.50
2019-01-21T23:16:50.145Z,25.43
2019-01-21T23:19:16.645Z,26.90
2019-01-21T23:21:43.324Z,23.60
2019-01-21T23:24:09.917Z,25.60
2019-01-21T23:26:37.732Z,24.93
2019-01-21T23:29:04.861Z,25.07
2019-01-21T23:31:31.425Z,25.33
2019-01-21T23:33:58.023Z,26.13
2019-01-21T23:36:24.643Z,25.07
2019-01-21T23:38:51.067Z,24.70
2019-01-21T23:41:18.076Z,25.07
2019-01-21T23:43:44.727Z,24.50
2019-01-21T23:46:11.237Z,26.23
2019-01-21T23:48:39.431Z,24.90
2019-01-21T23:51:06.496Z,24.30
2019-01-21T23:53:33.175Z,26.57
2019-01-21T23:55:59.978Z,24.87
2019-01-21T23:58:28.502Z,25.03
